.
WxDataArchive / Data Records for 2012-03-08
2012-03-07 March 2012 2012-03-09

Data Records for Thursday, 08 March 2012

Time	Temp	Chill	HIndex	Humid	Dewpt	 Wind 	HiWind	WindDir	Rain 	Barom 
-----	----	-----	------	-----	-----	------	------	-------	-----	----- 
00:00	61.0	61.0	61.0	58	46.1	3	9	248	0.00	29.930 
00:05	61.0	61.0	61.0	58	46.1	2	6	292	0.00	29.930 
00:10	61.0	61.0	61.0	59	46.6	2	6	248	0.00	29.930 
00:15	61.0	61.0	61.0	59	46.6	3	8	248	0.00	29.922 
00:20	61.0	61.0	61.0	59	46.6	3	9	248	0.00	29.922 
00:25	61.2	61.2	61.2	59	46.8	3	10	248	0.00	29.922 
00:30	61.2	61.2	61.2	59	46.8	3	9	248	0.00	29.915 
00:35	61.2	61.2	61.2	59	46.8	3	15	248	0.00	29.915 
00:40	61.2	61.2	61.2	59	46.8	3	6	248	0.00	29.915 
00:45	61.2	61.2	61.2	59	46.8	3	8	248	0.00	29.908 
00:50	61.3	61.3	61.3	59	46.8	3	9	270	0.00	29.908 
00:55	61.2	61.2	61.2	59	46.8	3	7	248	0.00	29.908 
01:00	61.3	61.3	61.3	59	46.8	3	8	248	0.00	29.906 
01:05	61.3	61.3	61.3	59	46.8	4	15	248	0.00	29.906 
01:10	61.5	61.5	61.5	59	47.0	4	12	248	0.00	29.906 
01:15	61.5	61.5	61.5	59	47.0	3	9	248	0.00	29.898 
01:20	61.5	61.5	61.5	59	47.0	3	9	248	0.00	29.898 
01:25	61.5	61.5	61.5	59	47.0	4	11	248	0.00	29.898 
01:30	61.6	61.6	61.6	59	47.1	4	11	248	0.00	29.889 
01:35	61.5	61.5	61.5	59	47.0	3	7	248	0.00	29.889 
01:40	61.5	61.5	61.5	59	47.0	3	12	292	0.00	29.889 
01:45	61.3	61.3	61.3	60	47.3	3	7	270	0.00	29.888 
01:50	61.2	61.2	61.2	60	47.2	3	6	248	0.00	29.888 
01:55	61.2	61.2	61.2	60	47.2	3	10	248	0.00	29.888 
02:00	61.2	61.2	61.2	60	47.2	3	9	248	0.00	29.888 
02:05	61.2	61.2	61.2	60	47.2	3	18	248	0.00	29.888 
02:10	61.2	61.2	61.2	60	47.2	4	14	248	0.00	29.888 
02:15	61.2	61.2	61.2	60	47.2	3	9	248	0.00	29.884 
02:20	61.2	61.2	61.2	60	47.2	3	7	248	0.00	29.884 
02:25	61.3	61.3	61.3	60	47.3	3	7	270	0.00	29.884 
02:30	61.2	61.2	61.2	60	47.2	2	6	248	0.00	29.872 
02:35	61.3	61.3	61.3	60	47.3	3	10	225	0.00	29.872 
02:40	61.3	61.3	61.3	60	47.3	3	7	270	0.00	29.872 
02:45	61.3	61.3	61.3	61	47.7	4	11	248	0.00	29.858 
02:50	61.3	61.3	61.3	61	47.7	4	9	248	0.00	29.858 
02:55	61.3	61.3	61.3	61	47.7	4	10	248	0.00	29.858 
03:00	61.2	61.2	61.2	61	47.6	2	6	248	0.00	29.856 
03:05	61.2	61.2	61.2	61	47.6	4	12	270	0.00	29.856 
03:10	61.2	61.2	61.2	62	48.1	4	12	248	0.00	29.856 
03:15	61.0	61.0	61.0	62	47.9	3	9	270	0.00	29.851 
03:20	61.0	61.0	61.0	62	47.9	2	6	248	0.00	29.851 
03:25	60.9	60.9	60.9	64	48.6	4	13	270	0.00	29.851 
03:30	60.5	60.5	60.5	65	48.7	3	14	248	0.00	29.846 
03:35	60.4	60.4	60.4	66	49.0	3	11	248	0.00	29.846 
03:40	60.1	60.1	60.1	68	49.5	3	10	248	0.00	29.846 
03:45	59.6	59.6	59.6	71	50.2	3	14	248	0.00	29.836 
03:50	59.2	59.2	59.2	72	50.2	3	11	248	0.00	29.836 
03:55	58.9	58.9	58.9	73	50.3	4	8	248	0.00	29.836 
04:00	58.7	58.7	58.7	74	50.4	3	6	248	0.00	29.833 
04:05	58.6	58.6	58.6	74	50.3	3	10	248	0.00	29.833 
04:10	58.6	58.6	58.6	74	50.3	3	11	248	0.00	29.833 
04:15	58.6	58.6	58.6	74	50.3	3	13	248	0.00	29.827 
04:20	58.6	58.6	58.6	74	50.3	2	7	248	0.00	29.827 
04:25	58.6	58.6	58.6	74	50.3	3	14	248	0.00	29.827 
04:30	58.6	58.6	58.6	74	50.3	3	7	248	0.00	29.830 
04:35	58.4	58.4	58.4	76	50.9	3	8	248	0.00	29.830 
04:40	58.0	58.0	58.0	79	51.5	3	6	248	0.00	29.830 
04:45	57.5	57.5	57.5	81	51.7	3	7	248	0.00	29.829 
04:50	57.2	57.2	57.2	82	51.8	3	11	248	0.00	29.829 
04:55	56.9	56.9	56.9	82	51.5	2	6	248	0.00	29.829 
05:00	56.9	56.9	56.9	82	51.5	2	7	248	0.00	29.827 
05:05	56.7	56.7	56.7	82	51.3	2	10	225	0.00	29.827 
05:10	56.9	56.9	56.9	81	51.1	2	5	248	0.00	29.827 
05:15	57.0	57.0	57.0	81	51.2	3	9	225	0.00	29.828 
05:20	57.2	57.2	57.2	80	51.1	2	10	248	0.00	29.828 
05:25	57.5	57.5	57.5	79	51.0	2	6	248	0.00	29.828 
05:30	57.8	57.8	57.8	78	51.0	3	10	248	0.00	29.822 
05:35	58.0	58.0	58.0	78	51.2	2	5	270	0.00	29.822 
05:40	58.1	58.1	58.1	78	51.3	3	9	248	0.00	29.822 
05:45	58.1	58.1	58.1	78	51.3	3	11	248	0.00	29.825 
05:50	58.1	58.1	58.1	78	51.3	2	6	248	0.00	29.825 
05:55	58.1	58.1	58.1	78	51.3	2	7	248	0.00	29.825 
06:00	58.1	58.1	58.1	78	51.3	2	7	248	0.00	29.822 
06:05	58.1	58.1	58.1	78	51.3	3	10	248	0.00	29.822 
06:10	58.3	58.3	58.3	78	51.5	2	7	225	0.00	29.822 
06:15	58.1	58.1	58.1	79	51.6	2	7	248	0.00	29.826 
06:20	58.0	58.0	58.0	80	51.9	3	10	248	0.00	29.826 
06:25	58.0	58.0	58.0	80	51.9	3	9	248	0.00	29.826 
06:30	57.8	57.8	57.8	81	52.0	3	11	248	0.00	29.828 
06:35	57.6	57.6	57.6	82	52.1	3	9	270	0.00	29.828 
06:40	57.6	57.6	57.6	83	52.5	3	7	248	0.00	29.828 
06:45	57.5	57.5	57.5	84	52.7	2	7	248	0.00	29.830 
06:50	57.3	57.3	57.3	84	52.5	3	6	248	0.00	29.830 
06:55	57.3	57.3	57.3	84	52.5	3	6	248	0.00	29.830 
07:00	57.5	57.5	57.5	85	53.0	3	11	248	0.00	29.830 
07:05	57.8	57.8	57.8	85	53.3	2	6	248	0.00	29.830 
07:10	58.0	58.0	58.0	85	53.5	2	7	248	0.00	29.830 
07:15	58.1	58.1	58.1	85	53.6	3	6	248	0.00	29.835 
07:20	58.3	58.3	58.3	84	53.5	2	6	248	0.00	29.835 
07:25	58.6	58.6	58.6	84	53.8	4	13	248	0.00	29.835 
07:30	58.7	58.7	58.7	84	53.9	3	10	248	0.00	29.830 
07:35	58.7	58.7	58.7	85	54.2	4	10	248	0.01	29.830 
07:40	58.6	58.6	58.6	85	54.1	3	9	248	0.00	29.830 
07:45	58.4	58.4	58.4	86	54.2	3	8	248	0.01	29.840 
07:50	58.1	58.1	58.1	87	54.2	4	11	248	0.00	29.840 
07:55	58.0	58.0	58.0	88	54.5	4	10	248	0.01	29.840 
08:00	57.8	57.8	57.8	88	54.3	4	7	248	0.00	29.842 
08:05	57.6	57.6	57.6	89	54.4	3	7	248	0.01	29.842 
08:10	57.5	57.5	57.5	89	54.3	3	11	248	0.00	29.842 
08:15	57.3	57.3	57.3	90	54.4	3	9	248	0.00	29.847 
08:20	57.3	57.3	57.3	90	54.4	2	6	248	0.00	29.847 
08:25	57.2	57.2	57.2	90	54.3	2	5	248	0.00	29.847 
08:30	57.2	57.2	57.2	90	54.3	2	6	248	0.00	29.847 
08:35	57.0	57.0	57.0	91	54.4	2	5	225	0.00	29.847 
08:40	57.0	57.0	57.0	91	54.4	2	6	248	0.00	29.847 
08:45	56.9	56.9	56.9	90	54.0	3	6	270	0.00	29.852 
08:50	56.6	56.6	56.6	89	53.4	3	6	248	0.00	29.852 
08:55	56.3	56.3	56.3	88	52.8	3	7	248	0.00	29.852 
09:00	56.3	56.3	56.3	87	52.5	3	7	270	0.00	29.853 
09:05	56.2	56.2	56.2	86	52.1	4	9	248	0.00	29.853 
09:10	56.2	56.2	56.2	86	52.1	3	6	248	0.00	29.853 
09:15	56.0	56.0	56.0	86	51.9	4	10	248	0.01	29.876 
09:20	55.6	55.6	55.6	87	51.8	3	5	248	0.01	29.876 
09:25	55.3	55.3	55.3	88	51.8	3	6	270	0.00	29.876 
09:30	54.7	54.7	54.7	89	51.5	5	9	270	0.02	29.908 
09:35	52.2	52.2	52.2	86	48.1	5	12	292	0.00	29.908 
09:40	50.4	50.4	50.4	87	46.7	4	8	270	0.00	29.908 
09:45	49.4	47.5	49.4	88	46.0	5	10	292	0.01	29.930 
09:50	48.8	48.8	48.8	89	45.7	3	7	270	0.00	29.930 
09:55	47.6	46.1	47.6	88	44.2	4	7	270	0.00	29.930 
10:00	46.8	45.2	46.8	92	44.6	4	9	315	0.00	29.923 
10:05	46.7	46.7	46.7	89	43.6	3	5	292	0.00	29.923 
10:10	46.7	46.7	46.7	90	43.9	2	4	292	0.01	29.923 
10:15	46.5	46.5	46.5	90	43.7	2	4	292	0.00	29.919 
10:20	45.8	45.8	45.8	90	43.0	2	4	338	0.00	29.919 
10:25	44.9	44.9	44.9	89	41.9	3	6	292	0.00	29.919 
10:30	44.5	44.5	44.5	89	41.5	2	5	315	0.00	29.924 
10:35	44.2	44.2	44.2	88	40.9	2	5	292	0.00	29.924 
10:40	44.1	44.1	44.1	88	40.8	3	5	270	0.00	29.924 
10:45	43.8	43.8	43.8	88	40.5	3	8	270	0.00	29.948 
10:50	43.5	43.5	43.5	88	40.2	3	6	292	0.00	29.948 
10:55	43.3	43.3	43.3	89	40.3	2	5	270	0.00	29.948 
11:00	43.2	43.2	43.2	89	40.2	2	5	248	0.00	29.955 
11:05	43.3	43.3	43.3	90	40.6	1	3	270	0.01	29.955 
11:10	43.1	43.1	43.1	90	40.4	2	5	248	0.01	29.955 
11:15	42.8	42.8	42.8	90	40.1	2	5	248	0.00	29.953 
11:20	42.8	42.8	42.8	90	40.1	2	4	270	0.01	29.953 
11:25	42.6	42.6	42.6	91	40.2	1	5	225	0.00	29.953 
11:30	42.2	42.2	42.2	90	39.5	3	9	315	0.01	29.970 
11:35	41.9	41.9	41.9	90	39.2	3	6	315	0.00	29.970 
11:40	41.6	39.2	41.6	90	38.9	4	9	292	0.00	29.970 
11:45	41.6	41.6	41.6	90	38.9	3	8	248	0.01	29.983 
11:50	41.8	41.8	41.8	90	39.1	2	5	315	0.00	29.983 
11:55	41.9	41.9	41.9	90	39.2	2	4	292	0.00	29.983 
12:00	41.9	41.9	41.9	90	39.2	3	7	270	0.00	29.980 
12:05	42.1	42.1	42.1	89	39.1	2	6	270	0.00	29.980 
12:10	42.2	42.2	42.2	89	39.2	3	6	315	0.00	29.980 
12:15	42.2	42.2	42.2	89	39.2	3	5	315	0.00	29.991 
12:20	42.3	42.3	42.3	88	39.0	3	9	292	0.00	29.991 
12:25	42.3	42.3	42.3	88	39.0	2	5	315	0.00	29.991 
12:30	42.3	42.3	42.3	87	38.7	3	7	270	0.00	30.001 
12:35	42.5	42.5	42.5	87	38.9	2	7	315	0.00	30.001 
12:40	42.5	42.5	42.5	87	38.9	2	5	315	0.00	30.001 
12:45	42.5	42.5	42.5	86	38.6	3	8	292	0.00	30.006 
12:50	42.5	42.5	42.5	85	38.3	3	6	270	0.00	30.006 
12:55	42.5	42.5	42.5	85	38.3	3	7	270	0.00	30.006 
13:00	42.6	42.6	42.6	85	38.4	2	5	270	0.00	30.005 
13:05	42.5	40.2	42.5	84	38.0	4	10	270	0.00	30.005 
13:10	42.3	42.3	42.3	84	37.8	3	6	270	0.00	30.005 
13:15	42.3	42.3	42.3	84	37.8	3	6	315	0.00	30.013 
13:20	42.5	42.5	42.5	84	38.0	2	5	248	0.00	30.013 
13:25	42.3	42.3	42.3	84	37.8	3	6	270	0.00	30.013 
13:30	42.5	42.5	42.5	84	38.0	2	6	248	0.00	29.998 
13:35	42.5	42.5	42.5	83	37.7	3	6	338	0.00	29.998 
13:40	42.6	42.6	42.6	83	37.8	3	7	248	0.00	29.998 
13:45	42.8	40.6	42.8	81	37.4	4	6	270	0.00	30.003 
13:50	42.9	42.9	42.9	81	37.5	3	7	270	0.00	30.003 
13:55	42.9	42.9	42.9	80	37.2	3	5	248	0.00	30.003 
14:00	42.9	42.9	42.9	80	37.2	3	5	248	0.00	30.005 
14:05	42.8	42.8	42.8	79	36.7	3	6	270	0.00	30.005 
14:10	42.8	42.8	42.8	79	36.7	3	6	270	0.00	30.005 
14:15	42.8	42.8	42.8	78	36.4	3	7	270	0.00	30.007 
14:20	42.8	42.8	42.8	78	36.4	3	6	270	0.00	30.007 
14:25	42.8	42.8	42.8	76	35.8	3	6	270	0.00	30.007 
14:30	42.8	42.8	42.8	75	35.4	3	7	270	0.00	30.002 
14:35	42.9	42.9	42.9	74	35.2	3	6	270	0.00	30.002 
14:40	43.3	43.3	43.3	74	35.6	3	6	270	0.00	30.002 
14:45	43.3	43.3	43.3	73	35.2	3	5	248	0.00	30.024 
14:50	43.2	43.2	43.2	72	34.8	2	6	248	0.00	30.024 
14:55	43.3	43.3	43.3	72	34.9	3	6	315	0.00	30.024 
15:00	43.6	43.6	43.6	72	35.2	3	6	338	0.00	30.013 
15:05	43.9	43.9	43.9	72	35.5	2	6	315	0.00	30.013 
15:10	43.9	43.9	43.9	70	34.8	3	7	270	0.00	30.013 
15:15	43.8	41.7	43.8	69	34.3	4	9	292	0.00	30.026 
15:20	43.9	43.9	43.9	71	35.1	3	6	248	0.00	30.026 
15:25	44.3	42.3	44.3	70	35.1	4	6	270	0.00	30.026 
15:30	44.8	42.9	44.8	66	34.1	4	9	270	0.00	30.023 
15:35	45.1	43.2	45.1	64	33.7	4	7	270	0.00	30.023 
15:40	45.1	45.1	45.1	65	34.0	3	5	270	0.00	30.023 
15:45	45.1	45.1	45.1	65	34.0	3	5	270	0.00	30.033 
15:50	44.8	42.9	44.8	64	33.4	4	6	270	0.00	30.033 
15:55	44.2	44.2	44.2	65	33.2	3	7	315	0.00	30.033 
16:00	43.8	41.7	43.8	65	32.8	4	7	315	0.00	30.039 
16:05	43.9	43.9	43.9	65	32.9	3	7	270	0.00	30.039 
16:10	43.9	41.8	43.9	66	33.3	4	6	270	0.00	30.039 
16:15	43.5	41.4	43.5	65	32.5	4	7	315	0.00	30.058 
16:20	43.2	43.2	43.2	65	32.2	3	9	292	0.00	30.058 
16:25	43.3	43.3	43.3	65	32.3	3	7	248	0.00	30.058 
16:30	43.5	41.4	43.5	63	31.8	4	6	270	0.00	30.072 
16:35	43.2	41.0	43.2	62	31.1	4	10	270	0.00	30.072 
16:40	42.9	42.9	42.9	61	30.4	3	9	292	0.00	30.072 
16:45	42.6	42.6	42.6	62	30.5	3	6	315	0.00	30.086 
16:50	42.6	42.6	42.6	60	29.7	3	9	248	0.00	30.086 
16:55	42.5	40.2	42.5	59	29.2	4	10	315	0.00	30.086 
17:00	42.6	42.6	42.6	59	29.3	2	6	270	0.00	30.100 
17:05	42.5	42.5	42.5	58	28.8	3	7	270	0.00	30.100 
17:10	42.5	42.5	42.5	58	28.8	2	6	315	0.00	30.100 
17:15	42.3	42.3	42.3	58	28.6	3	7	270	0.00	30.101 
17:20	42.2	42.2	42.2	58	28.5	2	6	338	0.00	30.101 
17:25	41.9	41.9	41.9	56	27.4	3	7	315	0.00	30.101 
17:30	41.8	41.8	41.8	56	27.3	3	8	315	0.00	30.100 
17:35	41.5	41.5	41.5	55	26.6	3	7	338	0.00	30.100 
17:40	41.3	41.3	41.3	55	26.4	3	7	315	0.00	30.100 
17:45	41.3	41.3	41.3	56	26.8	3	8	270	0.00	30.107 
17:50	41.2	41.2	41.2	56	26.7	3	9	270	0.00	30.107 
17:55	41.2	41.2	41.2	57	27.1	2	5	292	0.00	30.107 
18:00	41.1	41.1	41.1	56	26.6	2	7	315	0.00	30.119 
18:05	40.9	40.9	40.9	56	26.4	2	4	270	0.00	30.119 
18:10	40.8	40.8	40.8	55	25.9	3	9	292	0.00	30.119 
18:15	40.6	40.6	40.6	55	25.7	3	6	315	0.00	30.134 
18:20	40.5	40.5	40.5	55	25.6	3	10	315	0.00	30.134 
18:25	40.3	40.3	40.3	55	25.4	2	5	315	0.00	30.134 
18:30	40.3	40.3	40.3	56	25.9	2	5	270	0.00	30.141 
18:35	40.2	40.2	40.2	56	25.8	2	7	315	0.00	30.141 
18:40	40.2	40.2	40.2	55	25.3	3	7	248	0.00	30.141 
18:45	40.1	40.1	40.1	56	25.7	1	4	315	0.00	30.155 
18:50	39.8	39.8	39.8	56	25.4	2	5	270	0.00	30.155 
18:55	39.6	39.6	39.6	57	25.6	2	5	248	0.00	30.155 
19:00	39.5	39.5	39.5	56	25.1	3	6	270	0.00	30.166 
19:05	39.3	39.3	39.3	54	24.1	2	5	270	0.00	30.166 
19:10	39.2	39.2	39.2	52	23.1	3	9	270	0.00	30.166 
19:15	39.2	39.2	39.2	51	22.6	3	6	292	0.00	30.181 
19:20	39.1	39.1	39.1	50	22.0	2	5	292	0.00	30.181 
19:25	38.9	38.9	38.9	50	21.9	2	4	338	0.00	30.181 
19:30	38.8	38.8	38.8	50	21.8	1	4	270	0.00	30.172 
19:35	38.5	38.5	38.5	50	21.5	1	3	292	0.00	30.172 
19:40	38.3	38.3	38.3	50	21.3	1	4	292	0.00	30.172 
19:45	38.2	38.2	38.2	51	21.7	1	2	315	0.00	30.176 
19:50	38.0	38.0	38.0	52	22.0	1	3	292	0.00	30.176 
19:55	37.8	37.8	37.8	52	21.8	0	1	315	0.00	30.176 
20:00	37.6	37.6	37.6	53	22.0	0	2	315	0.00	30.180 
20:05	37.3	37.3	37.3	53	21.8	0	1	315	0.00	30.180 
20:10	37.2	37.2	37.2	54	22.1	0	0	---	0.00	30.180 
20:15	36.9	36.9	36.9	55	22.3	0	0	---	0.00	30.174 
20:20	36.6	36.6	36.6	55	22.0	0	0	---	0.00	30.174 
20:25	36.2	36.2	36.2	56	22.0	0	0	---	0.00	30.174 
20:30	35.9	35.9	35.9	57	22.2	0	0	---	0.00	30.172 
20:35	35.6	35.6	35.6	58	22.3	0	0	---	0.00	30.172 
20:40	35.2	35.2	35.2	58	21.9	0	0	---	0.00	30.172 
20:45	34.9	34.9	34.9	59	22.0	0	0	---	0.00	30.168 
20:50	34.4	34.4	34.4	60	22.0	0	0	---	0.00	30.168 
20:55	34.1	34.1	34.1	61	22.1	0	0	---	0.00	30.168 
21:00	33.7	33.7	33.7	62	22.1	0	0	---	0.00	30.164 
21:05	33.2	33.2	33.2	64	22.4	0	0	---	0.00	30.164 
21:10	32.9	32.9	32.9	65	22.4	0	0	---	0.00	30.164 
21:15	32.5	32.5	32.5	66	22.4	0	0	---	0.00	30.167 
21:20	32.2	32.2	32.2	67	22.5	0	0	---	0.00	30.167 
21:25	31.9	31.9	31.9	67	22.2	0	0	---	0.00	30.167 
21:30	31.6	31.6	31.6	69	22.6	0	0	---	0.00	30.167 
21:35	31.3	31.3	31.3	69	22.3	0	0	---	0.00	30.167 
21:40	31.0	31.0	31.0	69	22.0	0	0	---	0.00	30.167 
21:45	30.9	30.9	30.9	72	23.0	0	0	---	0.00	30.172 
21:50	30.9	30.9	30.9	73	23.3	0	0	---	0.00	30.172 
21:55	30.9	30.9	30.9	74	23.6	0	0	---	0.00	30.172 
22:00	31.2	31.2	31.2	74	23.9	0	0	---	0.00	30.184 
22:05	31.6	31.6	31.6	74	24.3	0	2	315	0.00	30.184 
22:10	32.4	32.4	32.4	73	24.7	0	2	315	0.00	30.184 
22:15	32.9	32.9	32.9	72	24.9	0	2	315	0.00	30.193 
22:20	33.4	33.4	33.4	71	25.0	0	1	315	0.00	30.193 
22:25	33.7	33.7	33.7	70	25.0	0	2	315	0.00	30.193 
22:30	33.8	33.8	33.8	70	25.1	0	2	315	0.00	30.201 
22:35	34.1	34.1	34.1	69	25.0	1	3	315	0.00	30.201 
22:40	34.4	34.4	34.4	69	25.3	2	5	248	0.00	30.201 
22:45	34.9	34.9	34.9	67	25.1	2	4	248	0.00	30.201 
22:50	35.2	35.2	35.2	66	25.0	2	5	270	0.00	30.201 
22:55	35.5	35.5	35.5	65	24.9	2	3	248	0.00	30.201 
23:00	35.5	35.5	35.5	63	24.2	2	4	248	0.00	30.201 
23:05	35.6	35.6	35.6	62	23.9	2	6	292	0.00	30.201 
23:10	35.8	35.8	35.8	62	24.1	2	3	292	0.00	30.201 
23:15	35.6	35.6	35.6	62	23.9	2	3	292	0.00	30.208 
23:20	35.6	35.6	35.6	62	23.9	2	4	292	0.00	30.208 
23:25	35.5	35.5	35.5	62	23.8	2	4	225	0.00	30.208 
23:30	35.5	35.5	35.5	62	23.8	1	3	225	0.00	30.216 
23:35	35.3	35.3	35.3	62	23.6	1	4	225	0.00	30.216 
23:40	35.2	35.2	35.2	62	23.5	1	3	225	0.00	30.216 
23:45	35.2	35.2	35.2	62	23.5	1	3	225	0.00	30.219 
23:50	35.0	35.0	35.0	63	23.7	1	4	225	0.00	30.219 
23:55	35.0	35.0	35.0	62	23.3	2	3	225	0.00	30.219 

CoCoRaHS
IN-AL-39
A2 Web Hosting
Creative Commons License
GoDaddy
search engine by freefind advanced

loaded 2018-11-13 22:37:42 • last modified 2010-11-18 10:43:29
Privacy PolicyDisclaimer
• wx.awcolley.com is powered by PmWiki v.2002016 •
• all content (unless otherwise noted) © 2018 A W Colley